Lake Dynasty — 3FZB2 — position and weather

sailwx.info

Track history (hours):
 
Tides and Currents Weather Stations Pressure Air Temp Water Temp Dewpoint Dewpoint Depression Visibility Wind Speed Wind Dir Waves Ship Positions

Lake Dynasty

Last reported at 2018-Apr-11 01:30 UTC. Time now 2018-Apr-25 12:45 UTC.
Position N 01°16' E 104°07'.
Warning: this ship's position is 14 days out of date.

Length 182 m; draft 11.9 m.

Type: Cargo ship. MMSI: 370957000.

Date/timePositionNaut miles runAvg speedWind from/ knotsBaromVisibWave heightAir tempDewpointWater temp
2018-Apr-11 01:30N 01°16' E 104°07'2 4.6
2018-Apr-11 00:58N 01°15' E 104°05'3 7.2
2018-Apr-11 00:30N 01°15' E 104°02'712.7
2018-Apr-10 23:56N 01°13' E 103°55'512.6
2018-Apr-10 23:30N 01°10' E 103°50'612.4
2018-Apr-10 23:00N 01°07' E 103°45'612.6
2018-Apr-10 22:30N 01°02' E 103°40'611.6
2018-Apr-10 22:00N 01°05' E 103°35'611.5
2018-Apr-10 21:31N 01°08' E 103°30'611.2
2018-Apr-10 20:58N 01°11' E 103°25'611.0
2018-Apr-10 20:27N 01°15' E 103°20'  
Track history (hours):
 
Tides and Currents Weather Stations Pressure Air Temp Water Temp Dewpoint Dewpoint Depression Visibility Wind Speed Wind Dir Waves Ship Positions

Lake Dynasty

Last reported at 2018-Apr-11 01:30 UTC. Time now 2018-Apr-25 12:45 UTC.
Position N 01°16' E 104°07'.
Warning: this ship's position is 14 days out of date.

Length 182 m; draft 11.9 m.

Type: Cargo ship. MMSI: 370957000.

Date/timePositionNaut miles runAvg speedWind from/ knotsBaromVisibWave heightAir tempDewpointWater temp
2018-Apr-11 01:30N 01°16' E 104°07'2 4.6
2018-Apr-11 00:58N 01°15' E 104°05'3 7.2
2018-Apr-11 00:30N 01°15' E 104°02'712.7
2018-Apr-10 23:56N 01°13' E 103°55'512.6
2018-Apr-10 23:30N 01°10' E 103°50'612.4
2018-Apr-10 23:00N 01°07' E 103°45'612.6
2018-Apr-10 22:30N 01°02' E 103°40'611.6
2018-Apr-10 22:00N 01°05' E 103°35'611.5
2018-Apr-10 21:31N 01°08' E 103°30'611.2
2018-Apr-10 20:58N 01°11' E 103°25'611.0
2018-Apr-10 20:27N 01°15' E 103°20'  

Dump ship's entire track history